createdAt,value
2022-12-08T00:01:34.134Z,86.66
2022-12-08T00:04:04.078Z,86.49
2022-12-08T00:06:56.006Z,86.22
2022-12-08T00:09:24.026Z,86.24
2022-12-08T00:12:02.804Z,86.67
2022-12-08T00:14:34.148Z,86.23
2022-12-08T00:17:03.533Z,86.50
2022-12-08T00:19:32.078Z,86.05
2022-12-08T00:22:00.047Z,86.29
2022-12-08T00:24:32.364Z,86.47
2022-12-08T00:27:00.875Z,86.42
2022-12-08T00:29:28.939Z,86.01
2022-12-08T00:31:57.006Z,86.19
2022-12-08T00:34:24.998Z,86.65
2022-12-08T00:36:52.962Z,87.01
2022-12-08T00:39:20.895Z,87.07
2022-12-08T00:42:07.290Z,86.94
2022-12-08T00:44:35.226Z,87.03
2022-12-08T00:47:03.062Z,87.29
2022-12-08T00:49:30.955Z,87.46
2022-12-08T00:51:58.880Z,87.21
2022-12-08T00:54:26.824Z,87.04
2022-12-08T00:56:54.711Z,87.00
2022-12-08T00:59:22.674Z,87.09
2022-12-08T01:01:50.808Z,87.58
2022-12-08T01:04:19.914Z,87.49
2022-12-08T01:06:48.588Z,87.22
2022-12-08T01:09:17.863Z,86.90
2022-12-08T01:11:46.271Z,87.13
2022-12-08T01:14:14.704Z,87.35
2022-12-08T01:16:43.760Z,87.14
2022-12-08T01:19:13.969Z,87.09
2022-12-08T01:21:43.000Z,87.04
2022-12-08T01:24:16.257Z,87.19
2022-12-08T01:26:44.767Z,87.46
2022-12-08T01:29:13.219Z,87.09
2022-12-08T01:31:41.201Z,86.90
2022-12-08T01:34:10.655Z,86.36
2022-12-08T01:36:39.230Z,86.73
2022-12-08T01:39:10.646Z,86.67
2022-12-08T01:41:39.567Z,86.49
2022-12-08T01:44:08.419Z,86.02
2022-12-08T01:46:39.623Z,86.25
2022-12-08T01:49:35.287Z,86.73
2022-12-08T01:52:14.797Z,86.56
2022-12-08T01:54:49.481Z,86.33
2022-12-08T01:57:24.077Z,86.07
2022-12-08T01:59:56.309Z,86.52
2022-12-08T02:02:29.602Z,86.67
2022-12-08T02:04:57.670Z,86.58
2022-12-08T02:07:25.610Z,86.25
2022-12-08T02:09:54.105Z,86.53
2022-12-08T02:12:22.163Z,86.96
2022-12-08T02:14:50.479Z,86.48
2022-12-08T02:18:07.608Z,86.43
2022-12-08T02:20:35.477Z,86.30
2022-12-08T02:23:15.496Z,86.54
2022-12-08T02:26:07.859Z,86.76
2022-12-08T02:28:56.706Z,86.60
2022-12-08T02:31:43.129Z,86.25
2022-12-08T02:34:29.420Z,86.14
2022-12-08T02:37:19.203Z,86.70
2022-12-08T02:40:03.113Z,86.65
2022-12-08T02:43:03.869Z,86.58
2022-12-08T02:45:39.734Z,86.53
2022-12-08T02:48:09.203Z,86.80
2022-12-08T02:50:37.112Z,86.79
2022-12-08T02:55:55.538Z,86.57
2022-12-08T02:59:02.328Z,86.68
2022-12-08T03:01:49.040Z,87.00
2022-12-08T03:04:46.147Z,86.86
2022-12-08T03:07:28.178Z,86.81
2022-12-08T03:10:03.125Z,86.95
2022-12-08T03:12:42.209Z,87.19
2022-12-08T03:15:14.426Z,86.94
2022-12-08T03:17:47.376Z,86.84
2022-12-08T03:20:23.978Z,86.68
2022-12-08T03:22:55.675Z,87.07
2022-12-08T03:25:30.464Z,87.32
2022-12-08T03:27:59.756Z,87.32
2022-12-08T03:30:32.155Z,87.18
2022-12-08T03:33:27.583Z,87.04
2022-12-08T03:35:55.795Z,87.04
2022-12-08T03:38:23.768Z,87.56
2022-12-08T03:41:10.136Z,87.24
2022-12-08T03:43:38.064Z,87.23
2022-12-08T03:46:06.019Z,87.14
2022-12-08T03:48:33.900Z,87.32
2022-12-08T03:51:01.785Z,87.25
2022-12-08T03:53:29.694Z,87.23
2022-12-08T03:55:57.579Z,87.03
2022-12-08T03:58:25.587Z,86.79
2022-12-08T04:00:53.556Z,86.91
2022-12-08T04:03:21.495Z,87.24
2022-12-08T04:05:49.413Z,87.29
2022-12-08T04:08:17.322Z,87.26
2022-12-08T04:10:45.257Z,87.17
2022-12-08T04:13:13.138Z,87.12
2022-12-08T04:15:46.249Z,86.83
2022-12-08T04:18:14.982Z,87.17
2022-12-08T04:20:44.402Z,87.38
2022-12-08T04:23:12.975Z,87.50
2022-12-08T04:25:41.059Z,87.31
2022-12-08T04:28:09.049Z,87.11
2022-12-08T04:30:36.908Z,87.28
2022-12-08T04:33:04.857Z,87.42
2022-12-08T04:35:32.887Z,87.33
2022-12-08T04:38:00.835Z,87.68
2022-12-08T04:40:28.773Z,87.66
2022-12-08T04:42:56.657Z,87.38
2022-12-08T04:45:24.627Z,87.51
2022-12-08T04:47:52.543Z,87.39
2022-12-08T04:50:20.442Z,87.39
2022-12-08T04:52:48.396Z,87.45
2022-12-08T04:55:16.434Z,87.54
2022-12-08T04:57:44.361Z,87.35
2022-12-08T05:00:13.734Z,87.66
2022-12-08T05:02:41.813Z,87.73
2022-12-08T05:05:10.004Z,87.83
2022-12-08T05:07:38.069Z,87.79
2022-12-08T05:10:07.127Z,87.74
2022-12-08T05:12:35.220Z,87.79
2022-12-08T05:15:04.087Z,87.68
2022-12-08T05:17:31.940Z,88.08
2022-12-08T05:19:59.861Z,87.94
2022-12-08T05:22:27.909Z,87.98
2022-12-08T05:24:55.765Z,88.04
2022-12-08T05:27:23.930Z,88.15
2022-12-08T05:29:52.105Z,87.69
2022-12-08T05:32:20.193Z,87.71
2022-12-08T05:34:48.172Z,87.77
2022-12-08T05:37:16.110Z,87.78
2022-12-08T05:39:44.031Z,87.80
2022-12-08T05:42:11.923Z,87.67
2022-12-08T05:44:39.804Z,87.72
2022-12-08T05:47:07.740Z,87.54
2022-12-08T05:49:35.621Z,87.66
2022-12-08T05:52:03.781Z,87.90
2022-12-08T05:54:31.674Z,88.06
2022-12-08T05:57:00.091Z,87.69
2022-12-08T05:59:27.927Z,87.71
2022-12-08T06:01:55.854Z,87.71
2022-12-08T06:04:23.767Z,87.86
2022-12-08T06:06:51.664Z,87.69
2022-12-08T06:09:19.703Z,87.66
2022-12-08T06:11:47.737Z,87.60
2022-12-08T06:14:15.631Z,87.87
2022-12-08T06:16:43.651Z,87.87
2022-12-08T06:19:11.698Z,88.18
2022-12-08T06:21:39.653Z,87.83
2022-12-08T06:24:07.849Z,87.69
2022-12-08T06:26:36.224Z,87.62
2022-12-08T06:29:05.068Z,87.53
2022-12-08T06:31:33.123Z,87.99
2022-12-08T06:34:01.072Z,87.81
2022-12-08T06:36:29.367Z,87.88
2022-12-08T06:38:58.052Z,87.84
2022-12-08T06:41:26.852Z,87.80
2022-12-08T06:43:58.575Z,87.54
2022-12-08T06:46:26.703Z,87.28
2022-12-08T06:48:54.636Z,87.33
2022-12-08T06:51:23.545Z,87.18
2022-12-08T06:53:51.496Z,87.42
2022-12-08T06:56:20.535Z,87.38
2022-12-08T06:58:52.411Z,87.52
2022-12-08T07:01:21.243Z,87.82
2022-12-08T07:03:49.287Z,87.65
2022-12-08T07:06:20.941Z,87.36
2022-12-08T07:08:48.927Z,87.69
2022-12-08T07:11:21.532Z,87.75
2022-12-08T07:13:51.213Z,87.64
2022-12-08T07:16:19.381Z,87.69
2022-12-08T07:18:47.448Z,87.56
2022-12-08T07:21:16.635Z,87.62
2022-12-08T07:23:54.356Z,87.49
2022-12-08T07:26:26.854Z,87.48
2022-12-08T07:28:54.875Z,87.53
2022-12-08T07:31:25.216Z,87.68
2022-12-08T07:33:53.652Z,87.76
2022-12-08T07:36:22.489Z,87.76
2022-12-08T07:38:53.670Z,87.71
2022-12-08T07:41:27.291Z,87.71
2022-12-08T07:43:59.094Z,87.62
2022-12-08T07:46:27.234Z,87.63
2022-12-08T07:48:55.527Z,87.65
2022-12-08T07:51:25.077Z,87.68
2022-12-08T07:53:54.883Z,87.78
2022-12-08T07:56:23.870Z,87.96
2022-12-08T07:58:51.815Z,87.83
2022-12-08T08:01:27.971Z,88.04
2022-12-08T08:03:58.134Z,87.78
2022-12-08T08:06:26.054Z,87.69
2022-12-08T08:08:54.747Z,87.34
2022-12-08T08:11:23.118Z,87.25
2022-12-08T08:13:51.641Z,87.32
2022-12-08T08:16:20.477Z,87.36
2022-12-08T08:18:52.403Z,87.41
2022-12-08T08:21:44.405Z,87.76
2022-12-08T08:24:09.568Z,87.50
2022-12-08T08:26:38.013Z,87.11
2022-12-08T08:29:06.020Z,86.92
2022-12-08T08:31:34.000Z,86.97
2022-12-08T08:34:06.356Z,87.31
2022-12-08T08:36:34.823Z,87.00
2022-12-08T08:39:04.137Z,87.14
2022-12-08T08:41:32.128Z,87.14
2022-12-08T08:44:00.092Z,87.19
2022-12-08T08:46:28.078Z,86.73
2022-12-08T08:48:56.733Z,86.66
2022-12-08T08:51:24.816Z,87.12
2022-12-08T08:53:52.776Z,86.68
2022-12-08T08:56:20.848Z,86.40
2022-12-08T08:58:49.808Z,86.66
2022-12-08T09:01:21.239Z,86.35
2022-12-08T09:03:49.514Z,85.93
2022-12-08T09:06:18.741Z,86.25
2022-12-08T09:08:46.856Z,85.70
2022-12-08T09:11:15.524Z,85.47
2022-12-08T09:13:43.460Z,85.01
2022-12-08T09:16:12.694Z,84.36
2022-12-08T09:18:40.791Z,84.38
2022-12-08T09:21:16.487Z,83.96
2022-12-08T09:23:44.472Z,83.27
2022-12-08T09:26:12.410Z,83.43
2022-12-08T09:28:46.193Z,83.79
2022-12-08T09:31:14.744Z,83.26
2022-12-08T09:33:43.230Z,82.88
2022-12-08T09:36:11.646Z,83.10
2022-12-08T09:38:43.188Z,82.83
2022-12-08T09:41:52.143Z,82.52
2022-12-08T09:44:59.877Z,80.40
2022-12-08T09:47:44.070Z,80.93
2022-12-08T09:50:14.677Z,80.76
2022-12-08T09:53:01.554Z,81.27
2022-12-08T09:55:39.160Z,80.22
2022-12-08T09:58:17.640Z,80.72
2022-12-08T10:00:45.702Z,80.37
2022-12-08T10:03:16.805Z,80.67
2022-12-08T10:05:54.061Z,80.39
2022-12-08T10:08:32.349Z,80.18
2022-12-08T10:11:11.326Z,79.42
2022-12-08T10:13:54.780Z,79.35
2022-12-08T10:16:34.423Z,80.18
2022-12-08T10:19:17.929Z,79.28
2022-12-08T10:21:46.091Z,78.39
2022-12-08T10:24:23.601Z,79.10
2022-12-08T10:26:51.649Z,78.43
2022-12-08T10:29:19.571Z,78.53
2022-12-08T10:31:47.671Z,78.94
2022-12-08T10:34:24.245Z,78.98
2022-12-08T10:37:22.087Z,79.43
2022-12-08T10:39:59.267Z,78.64
2022-12-08T10:42:35.301Z,78.54
2022-12-08T10:45:09.181Z,78.66
2022-12-08T10:47:44.586Z,78.58
2022-12-08T10:50:23.567Z,78.96
2022-12-08T10:53:08.660Z,78.82
2022-12-08T10:56:08.943Z,79.12
2022-12-08T10:58:41.053Z,78.82
2022-12-08T11:01:17.331Z,78.19
2022-12-08T11:03:49.740Z,77.32
2022-12-08T11:06:34.528Z,77.98
2022-12-08T11:09:04.754Z,78.03
2022-12-08T11:11:54.400Z,77.68
2022-12-08T11:14:38.102Z,77.80
2022-12-08T11:17:09.521Z,77.39
2022-12-08T11:19:39.451Z,77.88
2022-12-08T11:22:40.136Z,77.58
2022-12-08T11:25:07.996Z,77.87
2022-12-08T11:27:38.275Z,77.82
2022-12-08T11:30:15.821Z,78.15
2022-12-08T11:32:46.580Z,77.98
2022-12-08T11:35:42.760Z,77.20
2022-12-08T11:38:32.055Z,77.87
2022-12-08T11:41:36.101Z,77.11
2022-12-08T11:44:28.166Z,76.41
2022-12-08T11:47:01.028Z,76.31
2022-12-08T11:49:41.120Z,76.41
2022-12-08T11:52:24.355Z,76.47
2022-12-08T11:55:01.381Z,76.86
2022-12-08T11:57:30.347Z,76.42
2022-12-08T11:59:58.815Z,76.38
2022-12-08T12:02:30.973Z,76.17
2022-12-08T12:05:07.421Z,76.07
2022-12-08T12:07:47.513Z,75.87
2022-12-08T12:10:36.984Z,75.95
2022-12-08T12:13:30.826Z,76.29
2022-12-08T12:15:58.786Z,76.08
2022-12-08T12:18:40.611Z,76.26
2022-12-08T12:21:19.540Z,76.77
2022-12-08T12:24:23.819Z,76.98
2022-12-08T12:27:43.874Z,77.20
2022-12-08T12:30:31.948Z,76.35
2022-12-08T12:33:02.408Z,76.05
2022-12-08T12:35:36.051Z,75.90
2022-12-08T12:38:37.486Z,76.18
2022-12-08T12:41:08.350Z,76.78
2022-12-08T12:43:38.639Z,77.19
2022-12-08T12:46:27.603Z,77.31
2022-12-08T12:49:34.386Z,77.16
2022-12-08T12:52:02.352Z,76.16
2022-12-08T12:54:30.458Z,76.29
2022-12-08T12:57:16.407Z,76.54
2022-12-08T12:59:53.411Z,76.86
2022-12-08T13:02:30.961Z,76.26
2022-12-08T13:05:01.776Z,76.73
2022-12-08T13:07:36.203Z,77.14
2022-12-08T13:10:16.388Z,77.19
2022-12-08T13:12:45.764Z,77.37
2022-12-08T13:15:20.931Z,77.11
2022-12-08T13:17:49.478Z,77.44
2022-12-08T13:20:24.417Z,77.65
2022-12-08T13:23:27.613Z,78.15
2022-12-08T13:26:15.064Z,78.78
2022-12-08T13:29:04.135Z,78.56
2022-12-08T13:31:59.859Z,78.68
2022-12-08T13:34:41.760Z,78.86
2022-12-08T13:37:13.637Z,78.68
2022-12-08T13:40:16.326Z,78.81
2022-12-08T13:42:51.154Z,78.90
2022-12-08T13:45:59.179Z,79.27
2022-12-08T13:49:03.309Z,79.37
2022-12-08T13:53:34.181Z,79.55
2022-12-08T13:57:14.281Z,79.77
2022-12-08T13:59:45.807Z,79.98
2022-12-08T14:02:47.084Z,79.90
2022-12-08T14:05:40.742Z,80.26
2022-12-08T14:08:57.913Z,80.31
2022-12-08T14:11:34.398Z,79.89
2022-12-08T14:14:53.758Z,80.21
2022-12-08T14:17:16.351Z,80.47
2022-12-08T14:19:53.308Z,80.58
2022-12-08T14:22:21.323Z,80.33
2022-12-08T14:24:53.965Z,80.31
2022-12-08T14:27:25.100Z,80.33
2022-12-08T14:29:58.731Z,80.56
2022-12-08T14:32:31.544Z,80.41
2022-12-08T14:35:08.654Z,80.56
2022-12-08T14:37:41.502Z,80.91
2022-12-08T14:40:22.697Z,80.81
2022-12-08T14:43:08.707Z,80.70
2022-12-08T14:45:42.678Z,80.61
2022-12-08T14:48:23.567Z,80.95
2022-12-08T14:51:21.091Z,81.16
2022-12-08T14:53:54.882Z,81.16
2022-12-08T14:56:26.897Z,81.27
2022-12-08T14:59:16.691Z,81.37
2022-12-08T15:01:48.183Z,81.80
2022-12-08T15:04:24.554Z,81.84
2022-12-08T15:06:59.810Z,81.80
2022-12-08T15:09:35.088Z,81.90
2022-12-08T15:12:26.363Z,81.99
2022-12-08T15:14:57.156Z,81.95
2022-12-08T15:17:40.336Z,81.94
2022-12-08T15:20:34.868Z,82.03
2022-12-08T15:23:04.364Z,82.18
2022-12-08T15:25:32.712Z,82.34
2022-12-08T15:28:02.688Z,82.21
2022-12-08T15:30:31.329Z,82.31
2022-12-08T15:32:59.406Z,82.34
2022-12-08T15:35:28.004Z,82.35
2022-12-08T15:37:55.950Z,82.48
2022-12-08T15:40:26.066Z,82.61
2022-12-08T15:42:54.316Z,82.67
2022-12-08T15:45:30.857Z,82.66
2022-12-08T15:47:58.755Z,82.95
2022-12-08T15:50:26.738Z,83.36
2022-12-08T15:52:54.667Z,83.35
2022-12-08T15:55:22.818Z,83.10
2022-12-08T16:00:57.963Z,83.28
2022-12-08T16:09:44.389Z,83.45
2022-12-08T16:13:13.856Z,84.06
2022-12-08T16:15:59.033Z,84.56
2022-12-08T16:18:25.053Z,98.20
2022-12-08T16:21:22.732Z,100.00
2022-12-08T16:24:08.897Z,100.00
2022-12-08T16:29:55.426Z,99.83
2022-12-08T16:32:24.253Z,95.76
2022-12-08T16:34:52.696Z,95.16
2022-12-08T16:37:26.229Z,96.45
2022-12-08T16:39:57.120Z,96.71
2022-12-08T16:42:52.138Z,94.80
2022-12-08T16:45:23.919Z,95.81
2022-12-08T16:48:00.000Z,92.07
2022-12-08T16:50:34.937Z,92.30
2022-12-08T16:53:09.282Z,89.57
2022-12-08T16:55:37.214Z,90.63
2022-12-08T16:58:06.113Z,93.79
2022-12-08T17:00:37.562Z,95.38
2022-12-08T17:03:10.480Z,92.21
2022-12-08T17:05:41.281Z,88.74
2022-12-08T17:08:09.761Z,86.79
2022-12-08T17:10:39.505Z,84.04
2022-12-08T17:13:07.899Z,83.78
2022-12-08T17:15:35.872Z,81.87
2022-12-08T17:18:04.017Z,80.24
2022-12-08T17:20:34.161Z,80.58
2022-12-08T17:23:02.154Z,80.66
2022-12-08T17:25:30.066Z,82.81
2022-12-08T17:27:57.957Z,81.71
2022-12-08T17:30:25.931Z,83.27
2022-12-08T17:32:54.500Z,82.48
2022-12-08T17:35:22.483Z,80.09
2022-12-08T17:37:50.485Z,84.59
2022-12-08T17:40:28.007Z,85.43
2022-12-08T17:43:21.234Z,86.99
2022-12-08T17:45:53.933Z,86.15
2022-12-08T17:48:21.976Z,82.14
2022-12-08T17:50:49.961Z,81.67
2022-12-08T17:53:17.936Z,85.96
2022-12-08T17:55:57.134Z,83.64
2022-12-08T17:58:25.972Z,88.90
2022-12-08T18:01:00.889Z,87.93
2022-12-08T18:03:28.905Z,90.91
2022-12-08T18:06:07.244Z,85.99
2022-12-08T18:08:35.829Z,85.10
2022-12-08T18:11:14.192Z,82.00
2022-12-08T18:13:48.751Z,82.04
2022-12-08T18:16:17.754Z,85.77
2022-12-08T18:18:46.042Z,82.03
2022-12-08T18:21:16.365Z,81.53
2022-12-08T18:23:49.625Z,85.97
2022-12-08T18:26:17.712Z,93.68
2022-12-08T18:28:45.635Z,88.23
2022-12-08T18:31:17.696Z,90.63
2022-12-08T18:33:46.981Z,87.65
2022-12-08T18:36:23.809Z,85.37
2022-12-08T18:38:53.230Z,83.47
2022-12-08T18:41:28.471Z,94.92
2022-12-08T18:44:04.066Z,84.63
2022-12-08T18:46:32.169Z,83.37
2022-12-08T18:49:00.247Z,83.10
2022-12-08T18:51:28.335Z,85.20
2022-12-08T18:53:58.501Z,86.85
2022-12-08T18:56:34.498Z,87.01
2022-12-08T18:59:14.620Z,86.88
2022-12-08T19:01:42.743Z,84.69
2022-12-08T19:06:58.827Z,86.10
2022-12-08T19:09:30.196Z,82.43
2022-12-08T19:11:58.427Z,84.37
2022-12-08T19:14:28.407Z,85.90
2022-12-08T19:16:57.846Z,85.48
2022-12-08T19:19:36.901Z,83.10
2022-12-08T19:22:04.911Z,82.37
2022-12-08T19:24:35.051Z,81.02
2022-12-08T19:27:04.311Z,82.74
2022-12-08T19:29:32.352Z,80.75
2022-12-08T19:32:00.476Z,83.23
2022-12-08T19:34:28.457Z,82.05
2022-12-08T19:37:01.949Z,80.97
2022-12-08T19:40:02.152Z,81.23
2022-12-08T19:42:48.612Z,80.12
2022-12-08T19:45:21.793Z,81.13
2022-12-08T19:47:49.887Z,81.89
2022-12-08T19:50:36.178Z,79.97
2022-12-08T19:53:07.791Z,79.49
2022-12-08T19:56:03.199Z,80.05
2022-12-08T19:58:31.199Z,79.08
2022-12-08T20:00:59.209Z,79.72
2022-12-08T20:03:27.307Z,80.55
2022-12-08T20:05:55.438Z,86.47
2022-12-08T20:08:23.506Z,82.90
2022-12-08T20:10:51.724Z,81.30
2022-12-08T20:13:38.363Z,82.91
2022-12-08T20:16:06.850Z,80.62
2022-12-08T20:18:36.729Z,81.11
2022-12-08T20:21:08.511Z,83.31
2022-12-08T20:23:36.718Z,84.90
2022-12-08T20:26:08.513Z,80.19
2022-12-08T20:28:39.268Z,80.29
2022-12-08T20:31:07.437Z,85.02
2022-12-08T20:33:35.522Z,83.44
2022-12-08T20:36:05.817Z,80.78
2022-12-08T20:38:33.754Z,80.47
2022-12-08T20:41:01.791Z,79.16
2022-12-08T20:43:29.829Z,79.22
2022-12-08T20:45:58.385Z,79.40
2022-12-08T20:48:26.434Z,78.97
2022-12-08T20:50:55.086Z,78.98
2022-12-08T20:53:23.126Z,78.34
2022-12-08T20:55:51.193Z,78.72
2022-12-08T20:58:40.918Z,79.73
2022-12-08T21:01:11.358Z,79.12
2022-12-08T21:03:39.749Z,78.72
2022-12-08T21:06:08.916Z,78.62
2022-12-08T21:08:37.872Z,78.30
2022-12-08T21:11:06.645Z,78.22
2022-12-08T21:13:43.481Z,78.32
2022-12-08T21:16:17.184Z,77.40
2022-12-08T21:18:45.254Z,77.44
2022-12-08T21:21:15.201Z,77.94
2022-12-08T21:23:43.880Z,77.55
2022-12-08T21:26:15.362Z,77.38
2022-12-08T21:28:48.260Z,77.77
2022-12-08T21:31:19.067Z,78.78
2022-12-08T21:33:48.232Z,78.47
2022-12-08T21:36:18.819Z,78.57
2022-12-08T21:38:47.697Z,79.53
2022-12-08T21:41:41.996Z,78.81
2022-12-08T21:44:12.581Z,78.93
2022-12-08T21:46:41.644Z,78.60
2022-12-08T21:49:09.888Z,78.84
2022-12-08T21:51:42.287Z,80.31
2022-12-08T21:54:18.796Z,79.21
2022-12-08T21:56:48.819Z,78.86
2022-12-08T21:59:18.482Z,77.95
2022-12-08T22:01:46.934Z,77.81
2022-12-08T22:04:21.211Z,77.94
2022-12-08T22:06:49.732Z,78.36
2022-12-08T22:09:17.921Z,78.67
2022-12-08T22:11:46.068Z,78.95
2022-12-08T22:14:15.236Z,79.29
2022-12-08T22:16:44.399Z,78.86
2022-12-08T22:19:12.795Z,78.87
2022-12-08T22:21:41.545Z,78.95
2022-12-08T22:24:09.810Z,79.50
2022-12-08T22:26:37.864Z,79.57
2022-12-08T22:29:05.980Z,79.70
2022-12-08T22:31:34.124Z,79.69
2022-12-08T22:34:02.154Z,79.35
2022-12-08T22:36:30.173Z,79.60
2022-12-08T22:38:58.374Z,79.57
2022-12-08T22:41:26.405Z,79.98
2022-12-08T22:43:54.581Z,80.33
2022-12-08T22:46:24.989Z,80.28
2022-12-08T22:48:54.280Z,80.42
2022-12-08T22:51:22.456Z,80.66
2022-12-08T22:53:51.340Z,80.46
2022-12-08T22:56:20.158Z,80.41
2022-12-08T22:58:48.355Z,80.73
2022-12-08T23:01:23.109Z,80.85
2022-12-08T23:03:51.338Z,81.05
2022-12-08T23:06:19.994Z,81.07
2022-12-08T23:08:48.610Z,81.24
2022-12-08T23:11:17.271Z,81.35
2022-12-08T23:13:45.378Z,81.48
2022-12-08T23:16:13.385Z,81.61
2022-12-08T23:18:43.581Z,81.73
2022-12-08T23:21:15.538Z,82.14
2022-12-08T23:23:43.911Z,82.22
2022-12-08T23:26:24.805Z,82.45
2022-12-08T23:28:53.371Z,82.28
2022-12-08T23:31:25.470Z,82.09
2022-12-08T23:33:54.391Z,82.37
2022-12-08T23:36:26.255Z,82.49
2022-12-08T23:38:54.867Z,82.88
2022-12-08T23:41:23.044Z,82.52
2022-12-08T23:43:52.081Z,82.83
2022-12-08T23:46:22.071Z,82.76
2022-12-08T23:48:51.583Z,82.84
2022-12-08T23:51:20.064Z,83.26
2022-12-08T23:53:48.138Z,83.34
2022-12-08T23:56:17.975Z,83.59
2022-12-08T23:58:46.696Z,83.65
